createdAt,value
2019-03-16T00:00:38.579Z,0.50
2019-03-16T00:02:41.499Z,0.50
2019-03-16T00:04:44.483Z,0.40
2019-03-16T00:06:47.395Z,0.40
2019-03-16T00:08:50.331Z,0.47
2019-03-16T00:10:54.134Z,0.50
2019-03-16T00:12:57.936Z,0.70
2019-03-16T00:15:01.021Z,0.50
2019-03-16T00:17:05.115Z,0.83
2019-03-16T00:19:08.831Z,0.50
2019-03-16T00:21:12.511Z,0.53
2019-03-16T00:23:15.468Z,0.50
2019-03-16T00:25:18.395Z,0.50
2019-03-16T00:27:22.077Z,0.60
2019-03-16T00:29:25.018Z,0.50
2019-03-16T00:31:28.060Z,0.50
2019-03-16T00:33:31.731Z,0.40
2019-03-16T00:35:34.693Z,0.50
2019-03-16T00:37:37.607Z,0.47
2019-03-16T00:39:40.527Z,0.50
2019-03-16T00:41:43.466Z,0.50
2019-03-16T00:43:46.391Z,0.50
2019-03-16T00:45:49.302Z,0.50
2019-03-16T00:47:52.767Z,0.50
2019-03-16T00:49:55.670Z,0.60
2019-03-16T00:51:58.860Z,0.50
2019-03-16T00:54:02.630Z,0.40
2019-03-16T00:56:05.599Z,0.50
2019-03-16T00:58:09.298Z,0.77
2019-03-16T01:00:14.022Z,0.50
2019-03-16T01:04:25.929Z,0.40
2019-03-16T01:14:24.489Z,0.50
2019-03-16T01:24:25.447Z,0.70
2019-03-16T01:34:26.640Z,0.60
2019-03-16T01:44:25.725Z,0.50
2019-03-16T01:54:25.243Z,0.50
2019-03-16T01:56:28.233Z,0.60
2019-03-16T01:58:32.514Z,0.83
2019-03-16T02:00:35.543Z,0.57
2019-03-16T02:02:38.408Z,0.70
2019-03-16T02:04:42.063Z,0.47
2019-03-16T02:06:45.052Z,0.50
2019-03-16T02:08:47.928Z,0.50
2019-03-16T02:10:50.828Z,0.50
2019-03-16T02:12:54.655Z,0.40
2019-03-16T02:14:58.303Z,0.70
2019-03-16T02:17:01.240Z,0.40
2019-03-16T02:19:04.687Z,0.50
2019-03-16T02:21:07.671Z,0.40
2019-03-16T02:23:12.115Z,0.40
2019-03-16T02:25:16.616Z,0.40
2019-03-16T02:27:20.277Z,0.50
2019-03-16T02:29:23.163Z,0.50
2019-03-16T02:31:26.718Z,0.50
2019-03-16T02:33:30.371Z,0.50
2019-03-16T02:35:33.676Z,0.57
2019-03-16T02:37:36.665Z,0.50
2019-03-16T02:39:40.312Z,0.50
2019-03-16T02:41:43.240Z,0.50
2019-03-16T02:43:47.093Z,0.50
2019-03-16T02:45:49.976Z,0.50
2019-03-16T02:47:52.860Z,0.50
2019-03-16T02:49:56.213Z,0.60
2019-03-16T02:51:59.861Z,0.60
2019-03-16T02:54:03.265Z,0.47
2019-03-16T02:56:06.232Z,0.60
2019-03-16T02:58:09.113Z,0.50
2019-03-16T03:00:12.054Z,0.43
2019-03-16T03:02:15.894Z,0.60
2019-03-16T03:04:18.830Z,0.50
2019-03-16T03:06:22.578Z,0.50
2019-03-16T03:08:25.639Z,0.60
2019-03-16T03:10:29.439Z,0.70
2019-03-16T03:12:33.139Z,0.57
2019-03-16T03:14:36.864Z,0.50
2019-03-16T03:16:39.798Z,0.50
2019-03-16T03:18:43.625Z,0.50
2019-03-16T03:20:47.349Z,0.80
2019-03-16T03:22:50.283Z,0.57
2019-03-16T03:24:53.209Z,0.57
2019-03-16T03:26:56.268Z,0.50
2019-03-16T03:28:59.990Z,0.40
2019-03-16T03:31:03.076Z,0.80
2019-03-16T03:33:05.905Z,0.50
2019-03-16T03:35:08.869Z,0.50
2019-03-16T03:37:11.802Z,0.80
2019-03-16T03:39:15.530Z,0.50
2019-03-16T03:41:18.466Z,0.50
2019-03-16T03:43:21.393Z,0.60
2019-03-16T03:45:24.656Z,0.50
2019-03-16T03:47:28.363Z,0.50
2019-03-16T03:49:32.158Z,0.50
2019-03-16T03:51:35.125Z,0.50
2019-03-16T03:53:41.099Z,0.60
2019-03-16T03:55:41.019Z,0.50
2019-03-16T03:57:43.989Z,0.50
2019-03-16T03:59:47.791Z,0.60
2019-03-16T04:01:51.492Z,0.50
2019-03-16T04:03:55.225Z,0.50
2019-03-16T04:05:58.148Z,0.63
2019-03-16T04:08:01.159Z,0.50
2019-03-16T04:10:04.883Z,0.50
2019-03-16T04:12:07.804Z,0.40
2019-03-16T04:14:10.798Z,0.70
2019-03-16T04:16:14.138Z,0.50
2019-03-16T04:18:17.238Z,0.50
2019-03-16T04:20:20.167Z,0.70
2019-03-16T04:22:23.893Z,0.63
2019-03-16T04:24:26.828Z,0.80
2019-03-16T04:26:29.752Z,0.70
2019-03-16T04:28:33.963Z,0.97
2019-03-16T04:30:37.759Z,1.00
2019-03-16T04:32:41.452Z,0.80
2019-03-16T04:34:45.387Z,0.60
2019-03-16T04:36:48.123Z,0.50
2019-03-16T04:38:51.049Z,0.70
2019-03-16T04:40:54.108Z,0.60
2019-03-16T04:42:57.903Z,0.80
2019-03-16T04:45:01.716Z,0.70
2019-03-16T04:47:05.718Z,0.50
2019-03-16T04:49:09.438Z,0.60
2019-03-16T04:51:12.435Z,0.75
2019-03-16T04:53:15.540Z,0.57
2019-03-16T04:55:18.475Z,0.50
2019-03-16T04:57:22.158Z,0.70
2019-03-16T04:59:25.597Z,0.60
2019-03-16T05:01:28.519Z,0.63
2019-03-16T05:03:31.457Z,0.70
2019-03-16T05:05:34.504Z,0.60
2019-03-16T05:07:38.426Z,0.60
2019-03-16T05:09:42.220Z,0.60
2019-03-16T05:11:46.049Z,0.60
2019-03-16T05:13:49.010Z,0.53
2019-03-16T05:15:51.953Z,0.67
2019-03-16T05:17:55.021Z,0.70
2019-03-16T05:19:57.953Z,0.70
2019-03-16T05:22:02.196Z,0.60
2019-03-16T05:24:05.288Z,0.50
2019-03-16T05:26:08.239Z,0.70
2019-03-16T05:28:11.924Z,0.67
2019-03-16T05:30:15.657Z,0.40
2019-03-16T05:32:18.586Z,0.80
2019-03-16T05:34:21.603Z,0.60
2019-03-16T05:36:25.329Z,0.80
2019-03-16T05:38:28.258Z,0.57
2019-03-16T05:40:31.179Z,0.60
2019-03-16T05:42:34.253Z,0.90
2019-03-16T05:44:38.053Z,1.00
2019-03-16T05:46:41.737Z,0.73
2019-03-16T05:48:45.685Z,0.60
2019-03-16T05:50:48.621Z,0.60
2019-03-16T05:52:51.550Z,0.50
2019-03-16T05:54:54.627Z,0.50
2019-03-16T05:56:57.568Z,0.93
2019-03-16T05:59:02.108Z,0.60
2019-03-16T06:01:05.934Z,0.50
2019-03-16T06:03:08.871Z,0.60
2019-03-16T06:05:12.587Z,0.50
2019-03-16T06:07:16.728Z,0.50
2019-03-16T06:09:19.653Z,0.60
2019-03-16T06:11:22.585Z,0.60
2019-03-16T06:13:25.548Z,0.50
2019-03-16T06:15:29.354Z,0.50
2019-03-16T06:17:33.155Z,0.53
2019-03-16T06:19:36.193Z,0.60
2019-03-16T06:21:40.862Z,0.60
2019-03-16T06:23:44.597Z,0.60
2019-03-16T06:25:47.673Z,0.50
2019-03-16T06:27:50.597Z,0.60
2019-03-16T06:29:53.544Z,0.60
2019-03-16T06:31:56.505Z,0.80
2019-03-16T06:33:59.442Z,0.70
2019-03-16T06:36:02.372Z,1.10
2019-03-16T06:38:05.442Z,0.90
2019-03-16T06:40:09.245Z,1.10
2019-03-16T06:42:12.935Z,1.30
2019-03-16T06:44:16.692Z,1.27
2019-03-16T06:46:19.744Z,2.33
2019-03-16T06:48:22.704Z,2.00
2019-03-16T06:50:26.538Z,2.00
2019-03-16T06:52:29.470Z,1.87
2019-03-16T06:54:32.481Z,1.90
2019-03-16T06:56:36.409Z,1.60
2019-03-16T06:58:39.329Z,1.20
2019-03-16T07:00:42.278Z,1.60
2019-03-16T07:02:45.361Z,1.57
2019-03-16T07:04:49.080Z,1.67
2019-03-16T07:06:52.122Z,1.90
2019-03-16T07:08:55.864Z,1.60
2019-03-16T07:10:58.804Z,1.53
2019-03-16T07:13:02.505Z,1.60
2019-03-16T07:15:06.333Z,1.47
2019-03-16T07:17:09.292Z,1.10
2019-03-16T07:19:12.974Z,1.00
2019-03-16T07:21:15.938Z,1.03
2019-03-16T07:23:18.922Z,0.93
2019-03-16T07:25:21.938Z,1.40
2019-03-16T07:27:26.636Z,1.33
2019-03-16T07:29:28.620Z,1.20
2019-03-16T07:31:32.424Z,1.73
2019-03-16T07:33:36.140Z,1.30
2019-03-16T07:35:39.075Z,0.90
2019-03-16T07:37:42.008Z,2.00
2019-03-16T07:39:45.071Z,1.17
2019-03-16T07:41:48.876Z,1.00
2019-03-16T07:43:52.556Z,1.20
2019-03-16T07:45:57.424Z,1.30
2019-03-16T07:48:00.359Z,1.17
2019-03-16T07:50:03.286Z,0.90
2019-03-16T07:52:06.265Z,1.73
2019-03-16T07:54:09.250Z,1.40
2019-03-16T07:56:12.172Z,1.13
2019-03-16T07:58:15.223Z,1.27
2019-03-16T08:00:18.149Z,1.30
2019-03-16T08:02:21.077Z,1.40
2019-03-16T08:04:24.176Z,2.00
2019-03-16T08:06:27.128Z,1.43
2019-03-16T08:08:30.865Z,1.30
2019-03-16T08:10:33.858Z,2.00
2019-03-16T08:12:36.903Z,1.67
2019-03-16T08:14:40.699Z,1.80
2019-03-16T08:16:44.455Z,1.20
2019-03-16T08:18:47.507Z,1.60
2019-03-16T08:20:50.440Z,1.70
2019-03-16T08:22:53.777Z,1.73
2019-03-16T08:24:56.708Z,1.50
2019-03-16T08:26:59.641Z,1.20
2019-03-16T08:29:02.708Z,1.57
2019-03-16T08:31:07.227Z,1.10
2019-03-16T08:33:10.196Z,1.50
2019-03-16T08:35:13.934Z,1.33
2019-03-16T08:37:16.896Z,1.30
2019-03-16T08:39:20.591Z,2.20
2019-03-16T08:41:25.050Z,1.77
2019-03-16T08:43:27.993Z,1.70
2019-03-16T08:45:30.998Z,1.58
2019-03-16T08:47:34.149Z,1.57
2019-03-16T08:49:37.863Z,1.40
2019-03-16T08:51:41.551Z,1.80
2019-03-16T08:53:45.951Z,1.97
2019-03-16T08:55:48.887Z,2.20
2019-03-16T08:57:51.846Z,1.73
2019-03-16T08:59:54.930Z,1.40
2019-03-16T09:01:58.738Z,1.53
2019-03-16T09:04:01.682Z,1.50
2019-03-16T09:06:05.025Z,1.90
2019-03-16T09:08:07.986Z,1.77
2019-03-16T09:10:11.677Z,1.60
2019-03-16T09:12:15.405Z,1.40
2019-03-16T09:14:19.189Z,1.70
2019-03-16T09:16:22.886Z,1.50
2019-03-16T09:18:26.622Z,2.30
2019-03-16T09:20:29.539Z,1.40
2019-03-16T09:22:32.536Z,1.53
2019-03-16T09:24:36.360Z,1.50
2019-03-16T09:26:40.659Z,1.93
2019-03-16T09:28:44.374Z,1.63
2019-03-16T09:30:48.097Z,1.50
2019-03-16T09:32:51.055Z,1.40
2019-03-16T09:34:54.747Z,1.30
2019-03-16T09:36:58.475Z,1.40
2019-03-16T09:39:01.405Z,0.90
2019-03-16T09:41:04.337Z,0.80
2019-03-16T09:43:08.161Z,1.20
2019-03-16T09:45:11.104Z,0.80
2019-03-16T09:47:15.008Z,1.20
2019-03-16T09:49:18.094Z,1.00
2019-03-16T09:51:21.895Z,1.20
2019-03-16T09:53:25.703Z,0.77
2019-03-16T09:55:29.448Z,1.00
2019-03-16T09:57:32.396Z,1.03
2019-03-16T09:59:35.329Z,1.17
2019-03-16T10:01:38.286Z,0.90
2019-03-16T10:03:41.230Z,1.43
2019-03-16T10:05:45.031Z,0.90
2019-03-16T10:07:48.057Z,0.93
2019-03-16T10:09:51.099Z,0.80
2019-03-16T10:11:54.053Z,1.00
2019-03-16T10:13:57.013Z,0.90
2019-03-16T10:15:59.945Z,1.23
2019-03-16T10:18:02.886Z,0.90
2019-03-16T10:20:05.881Z,0.83
2019-03-16T10:22:08.805Z,1.00
2019-03-16T10:24:11.728Z,0.73
2019-03-16T10:26:14.696Z,0.90
2019-03-16T10:28:17.618Z,1.00
2019-03-16T10:30:20.541Z,0.90
2019-03-16T10:32:23.612Z,1.10
2019-03-16T10:34:27.407Z,0.90
2019-03-16T10:36:31.110Z,1.20
2019-03-16T10:38:34.833Z,1.17
2019-03-16T10:40:37.762Z,0.90
2019-03-16T10:42:40.713Z,1.10
2019-03-16T10:44:43.673Z,0.90
2019-03-16T10:46:46.604Z,0.70
2019-03-16T10:48:49.550Z,1.00
2019-03-16T10:50:52.598Z,0.68
2019-03-16T10:52:56.406Z,0.80
2019-03-16T10:55:00.376Z,0.80
2019-03-16T10:57:04.325Z,0.70
2019-03-16T10:59:06.233Z,1.07
2019-03-16T11:01:09.185Z,0.70
2019-03-16T11:03:12.173Z,0.60
2019-03-16T11:05:15.137Z,0.73
2019-03-16T11:07:18.088Z,0.70
2019-03-16T11:09:22.558Z,0.70
2019-03-16T11:11:25.610Z,0.70
2019-03-16T11:13:29.410Z,0.70
2019-03-16T11:15:33.285Z,0.70
2019-03-16T11:17:36.229Z,0.93
2019-03-16T11:19:39.160Z,0.77
2019-03-16T11:21:42.984Z,0.60
2019-03-16T11:23:46.784Z,0.70
2019-03-16T11:25:50.588Z,0.80
2019-03-16T11:27:53.800Z,0.80
2019-03-16T11:29:56.732Z,0.60
2019-03-16T11:32:01.583Z,0.90
2019-03-16T11:34:05.591Z,0.70
2019-03-16T11:36:09.309Z,0.90
2019-03-16T11:38:12.240Z,1.20
2019-03-16T11:40:16.060Z,0.80
2019-03-16T11:42:19.765Z,0.70
2019-03-16T11:44:23.494Z,0.90
2019-03-16T11:46:26.485Z,0.67
2019-03-16T11:48:29.429Z,0.53
2019-03-16T11:50:33.243Z,0.67
2019-03-16T11:52:37.080Z,0.50
2019-03-16T11:54:40.136Z,0.60
2019-03-16T11:56:43.073Z,0.50
2019-03-16T11:58:46.432Z,0.60
2019-03-16T12:00:49.372Z,0.57
2019-03-16T12:02:53.157Z,0.50
2019-03-16T12:04:57.194Z,0.70
2019-03-16T12:07:01.002Z,0.60
2019-03-16T12:09:04.803Z,0.60
2019-03-16T12:11:08.541Z,0.50
2019-03-16T12:13:17.218Z,0.70
2019-03-16T12:15:14.440Z,0.50
2019-03-16T12:17:17.413Z,0.50
2019-03-16T12:19:20.349Z,0.60
2019-03-16T12:21:23.298Z,0.50
2019-03-16T12:23:27.449Z,0.50
2019-03-16T12:25:30.406Z,0.50
2019-03-16T12:27:34.109Z,0.50
2019-03-16T12:29:37.859Z,0.50
2019-03-16T12:31:40.892Z,0.50
2019-03-16T12:33:44.594Z,0.50
2019-03-16T12:35:48.724Z,0.67
2019-03-16T12:37:51.690Z,0.60
2019-03-16T12:39:55.592Z,0.50
2019-03-16T12:41:58.626Z,0.60
2019-03-16T12:44:01.659Z,0.50
2019-03-16T12:46:05.367Z,0.50
2019-03-16T12:48:08.443Z,0.57
2019-03-16T12:50:12.857Z,0.60
2019-03-16T12:52:15.831Z,0.60
2019-03-16T12:54:19.572Z,0.50
2019-03-16T12:56:22.502Z,0.57
2019-03-16T12:58:25.429Z,0.50
2019-03-16T13:00:28.421Z,0.80
2019-03-16T13:02:31.475Z,0.70
2019-03-16T13:04:35.283Z,0.50
2019-03-16T13:06:38.388Z,0.50
2019-03-16T13:08:42.152Z,0.70
2019-03-16T13:10:46.684Z,0.50
2019-03-16T13:12:50.427Z,0.60
2019-03-16T13:14:53.354Z,0.50
2019-03-16T13:16:56.298Z,0.70
2019-03-16T13:18:59.256Z,0.60
2019-03-16T13:21:02.245Z,0.70
2019-03-16T13:23:06.017Z,0.50
2019-03-16T13:25:09.741Z,0.50
2019-03-16T13:27:12.803Z,0.60
2019-03-16T13:29:15.768Z,0.53
2019-03-16T13:31:19.029Z,0.50
2019-03-16T13:33:21.973Z,0.57
2019-03-16T13:35:24.901Z,0.50
2019-03-16T13:37:28.188Z,0.60
2019-03-16T13:39:31.327Z,0.50
2019-03-16T13:41:35.119Z,0.67
2019-03-16T13:43:38.533Z,0.50
2019-03-16T13:45:41.617Z,0.70
2019-03-16T13:47:44.561Z,0.60
2019-03-16T13:49:47.868Z,0.60
2019-03-16T13:51:51.556Z,0.70
2019-03-16T13:53:55.386Z,0.63
2019-03-16T13:55:58.661Z,1.10
2019-03-16T13:58:02.465Z,0.70
2019-03-16T14:00:12.272Z,0.90
2019-03-16T14:02:11.660Z,0.80
2019-03-16T14:04:14.662Z,1.30
2019-03-16T14:06:17.784Z,0.80
2019-03-16T14:08:20.869Z,0.80
2019-03-16T14:10:24.155Z,1.30
2019-03-16T14:12:28.144Z,0.80
2019-03-16T14:14:31.661Z,0.90
2019-03-16T14:16:34.654Z,1.40
2019-03-16T14:18:37.824Z,0.93
2019-03-16T14:20:41.934Z,0.80
2019-03-16T14:22:45.006Z,0.80
2019-03-16T14:24:50.492Z,0.60
2019-03-16T14:26:55.876Z,0.80
2019-03-16T14:28:58.885Z,0.80
2019-03-16T14:31:02.661Z,0.60
2019-03-16T14:33:06.946Z,0.60
2019-03-16T14:35:10.476Z,0.67
2019-03-16T14:37:13.409Z,0.60
2019-03-16T14:39:16.571Z,0.80
2019-03-16T14:41:21.595Z,0.70
2019-03-16T14:43:25.604Z,0.60
2019-03-16T14:45:29.065Z,0.57
2019-03-16T14:47:32.083Z,0.60
2019-03-16T14:49:35.030Z,0.60
2019-03-16T14:51:38.781Z,0.67
2019-03-16T14:53:41.717Z,1.00
2019-03-16T14:55:44.652Z,0.60
2019-03-16T14:57:47.614Z,0.73
2019-03-16T14:59:51.412Z,0.80
2019-03-16T15:01:55.214Z,0.70
2019-03-16T15:03:59.120Z,0.83
2019-03-16T15:06:02.921Z,0.90
2019-03-16T15:08:06.725Z,0.83
2019-03-16T15:10:10.653Z,0.77
2019-03-16T15:12:15.930Z,0.70
2019-03-16T15:14:21.879Z,1.00
2019-03-16T15:16:20.520Z,0.80
2019-03-16T15:18:24.302Z,1.00
2019-03-16T15:20:28.105Z,0.80
2019-03-16T15:22:32.316Z,0.60
2019-03-16T15:24:35.717Z,0.70
2019-03-16T15:26:38.919Z,0.60
2019-03-16T15:28:42.252Z,0.60
2019-03-16T15:30:50.985Z,0.70
2019-03-16T15:32:49.484Z,0.63
2019-03-16T15:34:52.727Z,0.70
2019-03-16T15:36:55.757Z,0.60
2019-03-16T15:38:59.473Z,0.60
2019-03-16T15:41:02.565Z,0.60
2019-03-16T15:43:05.517Z,0.57
2019-03-16T15:45:14.727Z,0.60
2019-03-16T15:47:19.201Z,0.60
2019-03-16T15:49:22.159Z,0.70
2019-03-16T15:51:25.971Z,0.70
2019-03-16T15:53:29.166Z,0.90
2019-03-16T15:55:32.104Z,0.97
2019-03-16T15:57:35.039Z,0.70
2019-03-16T15:59:38.094Z,0.70
2019-03-16T16:01:41.897Z,0.60
2019-03-16T16:03:45.699Z,0.73
2019-03-16T16:05:49.533Z,0.60
2019-03-16T16:07:52.477Z,0.60
2019-03-16T16:09:56.207Z,0.80
2019-03-16T16:11:59.293Z,0.60
2019-03-16T16:14:02.225Z,1.00
2019-03-16T16:16:06.772Z,0.80
2019-03-16T16:18:10.504Z,0.70
2019-03-16T16:20:14.171Z,0.70
2019-03-16T16:22:17.876Z,0.67
2019-03-16T16:24:20.957Z,0.70
2019-03-16T16:26:24.657Z,0.70
2019-03-16T16:28:28.364Z,0.70
2019-03-16T16:30:31.549Z,0.70
2019-03-16T16:32:34.488Z,0.93
2019-03-16T16:34:37.510Z,0.70
2019-03-16T16:36:41.254Z,0.80
2019-03-16T16:38:44.206Z,0.83
2019-03-16T16:40:47.143Z,0.87
2019-03-16T16:42:50.179Z,0.77
2019-03-16T16:44:53.117Z,1.07
2019-03-16T16:46:56.635Z,0.80
2019-03-16T16:49:00.258Z,0.90
2019-03-16T16:51:03.320Z,0.90
2019-03-16T16:53:07.124Z,0.70
2019-03-16T16:55:10.849Z,0.77
2019-03-16T16:57:13.772Z,0.90
2019-03-16T16:59:18.222Z,0.63
2019-03-16T17:01:29.285Z,0.80
2019-03-16T17:03:25.012Z,0.60
2019-03-16T17:05:27.948Z,0.60
2019-03-16T17:07:31.310Z,0.90
2019-03-16T17:09:34.240Z,0.60
2019-03-16T17:11:37.174Z,0.63
2019-03-16T17:13:40.133Z,0.70
2019-03-16T17:15:44.647Z,0.70
2019-03-16T17:17:48.329Z,0.67
2019-03-16T17:19:51.365Z,0.60
2019-03-16T17:21:54.286Z,0.80
2019-03-16T17:23:57.225Z,0.70
2019-03-16T17:26:00.317Z,0.73
2019-03-16T17:28:03.245Z,0.80
2019-03-16T17:30:09.513Z,0.80
2019-03-16T17:32:13.370Z,0.87
2019-03-16T17:34:16.410Z,1.00
2019-03-16T17:36:22.256Z,0.80
2019-03-16T17:38:23.197Z,0.80
2019-03-16T17:40:31.291Z,0.70
2019-03-16T17:42:36.549Z,0.80
2019-03-16T17:44:39.620Z,0.60
2019-03-16T17:46:43.320Z,0.90
2019-03-16T17:48:47.840Z,0.90
2019-03-16T17:50:51.570Z,0.77
2019-03-16T17:52:54.500Z,0.70
2019-03-16T17:54:57.424Z,1.00
2019-03-16T17:57:00.425Z,0.70
2019-03-16T17:59:03.474Z,1.17
2019-03-16T18:01:07.273Z,1.07
2019-03-16T18:03:14.057Z,1.23
2019-03-16T18:05:13.983Z,1.10
2019-03-16T18:07:16.921Z,1.07
2019-03-16T18:09:20.335Z,1.00
2019-03-16T18:11:24.032Z,1.00
2019-03-16T18:13:27.836Z,0.90
2019-03-16T18:15:31.670Z,1.20
2019-03-16T18:17:34.703Z,1.07
2019-03-16T18:19:38.643Z,1.30
2019-03-16T18:21:41.600Z,1.20
2019-03-16T18:23:45.341Z,1.47
2019-03-16T18:25:48.269Z,1.50
2019-03-16T18:27:51.221Z,1.47
2019-03-16T18:29:54.162Z,1.57
2019-03-16T18:32:07.336Z,1.00
2019-03-16T18:34:01.790Z,1.10
2019-03-16T18:36:04.849Z,1.10
2019-03-16T18:38:08.552Z,1.20
2019-03-16T18:40:12.477Z,1.43
2019-03-16T18:42:15.417Z,1.50
2019-03-16T18:44:19.136Z,1.20
2019-03-16T18:46:22.496Z,1.37
2019-03-16T18:48:25.438Z,0.87
2019-03-16T18:50:28.396Z,0.83
2019-03-16T18:52:31.476Z,0.90
2019-03-16T18:54:35.278Z,0.90
2019-03-16T18:56:39.081Z,0.80
2019-03-16T18:58:42.810Z,1.23
2019-03-16T19:00:45.763Z,1.40
2019-03-16T19:02:49.563Z,1.27
2019-03-16T19:04:52.812Z,1.00
2019-03-16T19:06:55.754Z,0.80
2019-03-16T19:08:59.245Z,0.80
2019-03-16T19:11:02.809Z,0.70
2019-03-16T19:13:06.742Z,0.73
2019-03-16T19:15:13.508Z,1.10
2019-03-16T19:17:17.726Z,1.00
2019-03-16T19:19:21.112Z,1.10
2019-03-16T19:21:24.198Z,1.20
2019-03-16T19:23:27.508Z,1.40
2019-03-16T19:25:30.573Z,0.90
2019-03-16T19:27:33.560Z,1.00
2019-03-16T19:29:37.283Z,1.00
2019-03-16T19:31:40.211Z,0.97
2019-03-16T19:33:43.150Z,0.70
2019-03-16T19:35:46.289Z,0.80
2019-03-16T19:37:49.596Z,1.00
2019-03-16T19:39:52.579Z,0.90
2019-03-16T19:41:56.760Z,0.83
2019-03-16T19:44:00.494Z,0.80
2019-03-16T19:46:04.295Z,0.83
2019-03-16T19:48:08.120Z,0.80
2019-03-16T19:50:12.978Z,0.60
2019-03-16T19:52:16.440Z,0.90
2019-03-16T19:54:19.606Z,0.73
2019-03-16T19:56:23.408Z,0.70
2019-03-16T19:58:27.429Z,0.77
2019-03-16T20:00:30.707Z,0.80
2019-03-16T20:02:45.713Z,0.60
2019-03-16T20:04:38.620Z,1.17
2019-03-16T20:06:42.438Z,0.60
2019-03-16T20:08:46.316Z,0.60
2019-03-16T20:10:50.030Z,0.67
2019-03-16T20:12:54.441Z,0.70
2019-03-16T20:14:57.628Z,0.87
2019-03-16T20:17:00.589Z,0.80
2019-03-16T20:19:04.110Z,0.73
2019-03-16T20:21:07.192Z,0.60
2019-03-16T20:23:10.152Z,0.67
2019-03-16T20:25:14.106Z,0.77
2019-03-16T20:27:17.961Z,1.00
2019-03-16T20:29:20.890Z,0.83
2019-03-16T20:31:23.978Z,0.87
2019-03-16T20:33:26.908Z,0.83
2019-03-16T20:35:29.832Z,0.80
2019-03-16T20:37:32.937Z,0.60
2019-03-16T20:39:35.871Z,0.70
2019-03-16T20:41:39.787Z,0.60
2019-03-16T20:43:43.604Z,0.80
2019-03-16T20:45:46.471Z,0.80
2019-03-16T20:47:50.378Z,0.60
2019-03-16T20:49:53.910Z,0.70
2019-03-16T20:51:57.672Z,0.90
2019-03-16T20:54:01.475Z,0.87
2019-03-16T20:56:04.718Z,0.70
2019-03-16T20:58:09.387Z,0.70
2019-03-16T21:00:15.432Z,0.80
2019-03-16T21:02:20.961Z,0.70
2019-03-16T21:04:25.166Z,0.80
2019-03-16T21:06:29.002Z,0.90
2019-03-16T21:08:32.733Z,0.80
2019-03-16T21:10:35.721Z,0.70
2019-03-16T21:12:38.664Z,1.20
2019-03-16T21:14:42.473Z,0.80
2019-03-16T21:16:46.570Z,0.70
2019-03-16T21:18:50.270Z,0.77
2019-03-16T21:20:54.244Z,0.77
2019-03-16T21:22:57.190Z,0.90
2019-03-16T21:25:00.387Z,0.70
2019-03-16T21:27:03.363Z,0.90
2019-03-16T21:29:06.660Z,0.70
2019-03-16T21:31:09.714Z,0.50
2019-03-16T21:33:13.211Z,0.90
2019-03-16T21:35:16.600Z,1.20
2019-03-16T21:37:19.833Z,0.83
2019-03-16T21:39:24.744Z,0.90
2019-03-16T21:41:27.753Z,0.97
2019-03-16T21:43:30.708Z,1.23
2019-03-16T21:45:33.682Z,0.90
2019-03-16T21:47:36.645Z,0.80
2019-03-16T21:49:40.480Z,0.73
2019-03-16T21:51:44.457Z,0.80
2019-03-16T21:53:47.424Z,1.23
2019-03-16T21:55:50.351Z,0.80
2019-03-16T21:57:53.755Z,1.00
2019-03-16T21:59:56.677Z,0.83
2019-03-16T22:01:59.605Z,1.07
2019-03-16T22:04:02.697Z,0.93
2019-03-16T22:06:05.672Z,1.00
2019-03-16T22:08:08.596Z,0.93
2019-03-16T22:10:13.276Z,1.03
2019-03-16T22:12:16.214Z,0.93
2019-03-16T22:14:19.145Z,0.90
2019-03-16T22:16:22.507Z,0.97
2019-03-16T22:18:26.207Z,1.20
2019-03-16T22:20:30.988Z,1.10
2019-03-16T22:22:34.325Z,0.90
2019-03-16T22:24:38.022Z,1.00
2019-03-16T22:26:41.826Z,1.03
2019-03-16T22:28:45.544Z,0.97
2019-03-16T22:30:48.474Z,1.10
2019-03-16T22:32:51.492Z,1.00
2019-03-16T22:34:55.317Z,1.00
2019-03-16T22:36:58.335Z,1.15
2019-03-16T22:39:01.278Z,0.90
2019-03-16T22:41:04.483Z,1.07
2019-03-16T22:43:07.416Z,1.00
2019-03-16T22:45:11.298Z,1.20
2019-03-16T22:47:14.285Z,0.70
2019-03-16T22:49:17.229Z,1.07
2019-03-16T22:51:20.184Z,1.33
2019-03-16T22:53:24.314Z,0.93
2019-03-16T22:55:27.243Z,0.93
2019-03-16T22:57:30.173Z,1.33
2019-03-16T22:59:33.161Z,0.93
2019-03-16T23:01:36.185Z,1.00
2019-03-16T23:03:40.026Z,0.93
2019-03-16T23:05:44.239Z,1.30
2019-03-16T23:07:47.924Z,1.00
2019-03-16T23:09:51.080Z,1.07
2019-03-16T23:11:54.033Z,1.30
2019-03-16T23:13:56.993Z,0.90
2019-03-16T23:16:00.692Z,1.00
2019-03-16T23:18:04.417Z,0.80
2019-03-16T23:20:07.348Z,1.00
2019-03-16T23:22:10.924Z,1.05
2019-03-16T23:24:13.884Z,0.70
2019-03-16T23:26:16.813Z,0.90
2019-03-16T23:28:19.745Z,0.90
2019-03-16T23:30:22.800Z,1.00
2019-03-16T23:32:26.501Z,0.90
2019-03-16T23:34:30.203Z,1.20
2019-03-16T23:36:34.034Z,1.00
2019-03-16T23:38:36.956Z,1.00
2019-03-16T23:40:39.889Z,1.10
2019-03-16T23:42:42.854Z,0.90
2019-03-16T23:44:46.553Z,1.30
2019-03-16T23:46:50.351Z,0.97
2019-03-16T23:48:54.154Z,0.90
2019-03-16T23:50:57.956Z,1.20
2019-03-16T23:53:01.758Z,0.80
2019-03-16T23:55:05.590Z,0.93
2019-03-16T23:57:08.525Z,1.47
2019-03-16T23:59:11.913Z,1.03
